createdAt,value
2018-12-29T00:01:23.953Z,70.47
2018-12-29T00:03:52.326Z,70.50
2018-12-29T00:06:20.334Z,64.65
2018-12-29T00:08:48.300Z,64.53
2018-12-29T00:11:16.308Z,71.35
2018-12-29T00:13:44.417Z,68.53
2018-12-29T00:16:12.493Z,76.18
2018-12-29T00:18:40.490Z,65.72
2018-12-29T00:21:08.561Z,68.82
2018-12-29T00:23:36.517Z,70.30
2018-12-29T00:26:04.997Z,65.85
2018-12-29T00:28:32.708Z,66.70
2018-12-29T00:31:00.421Z,67.93
2018-12-29T00:33:28.684Z,67.30
2018-12-29T00:35:56.657Z,66.47
2018-12-29T00:38:24.916Z,72.07
2018-12-29T00:40:52.932Z,73.87
2018-12-29T00:43:20.661Z,61.90
2018-12-29T00:45:48.389Z,68.82
2018-12-29T00:48:16.068Z,64.90
2018-12-29T00:50:43.749Z,70.22
2018-12-29T00:53:11.712Z,66.62
2018-12-29T00:55:39.761Z,64.45
2018-12-29T00:58:08.112Z,67.70
2018-12-29T01:00:36.062Z,60.35
2018-12-29T01:03:04.444Z,64.03
2018-12-29T01:05:32.456Z,68.45
2018-12-29T01:08:00.414Z,64.57
2018-12-29T01:10:28.578Z,71.05
2018-12-29T01:12:56.590Z,66.72
2018-12-29T01:15:24.296Z,65.50
2018-12-29T01:17:52.309Z,61.37
2018-12-29T01:20:20.585Z,61.92
2018-12-29T01:22:47.984Z,69.62
2018-12-29T01:25:15.994Z,68.00
2018-12-29T01:27:43.988Z,61.85
2018-12-29T01:30:11.677Z,55.75
2018-12-29T01:32:39.376Z,66.93
2018-12-29T01:35:07.324Z,61.80
2018-12-29T01:37:35.747Z,64.90
2018-12-29T01:40:03.750Z,68.37
2018-12-29T01:42:31.464Z,62.67
2018-12-29T01:44:59.164Z,64.28
2018-12-29T01:47:27.031Z,68.62
2018-12-29T01:49:54.984Z,69.55
2018-12-29T01:52:22.957Z,61.25
2018-12-29T01:54:51.606Z,66.10
2018-12-29T01:57:19.293Z,67.75
2018-12-29T01:59:47.507Z,70.75
2018-12-29T02:02:15.462Z,68.07
2018-12-29T02:04:43.437Z,69.87
2018-12-29T02:07:11.376Z,66.62
2018-12-29T02:09:39.266Z,70.97
2018-12-29T02:12:06.972Z,68.85
2018-12-29T02:14:35.112Z,65.55
2018-12-29T02:17:03.147Z,65.30
2018-12-29T02:19:31.219Z,63.30
2018-12-29T02:21:59.423Z,65.75
2018-12-29T02:24:27.505Z,70.00
2018-12-29T02:26:56.061Z,67.35
2018-12-29T02:29:25.184Z,65.87
2018-12-29T02:31:53.797Z,60.45
2018-12-29T02:34:22.369Z,67.55
2018-12-29T02:36:50.132Z,65.97
2018-12-29T02:39:18.330Z,64.50
2018-12-29T02:41:46.334Z,61.55
2018-12-29T02:44:14.310Z,68.10
2018-12-29T02:46:42.388Z,70.50
2018-12-29T02:49:10.419Z,76.32
2018-12-29T02:51:39.264Z,66.30
2018-12-29T02:54:08.852Z,57.53
2018-12-29T02:56:37.357Z,67.15
2018-12-29T02:59:05.273Z,59.28
2018-12-29T03:01:33.360Z,65.53
2018-12-29T03:04:01.371Z,54.67
2018-12-29T03:06:29.475Z,63.55
2018-12-29T03:08:57.581Z,55.92
2018-12-29T03:11:25.538Z,68.53
2018-12-29T03:13:53.579Z,61.83
2018-12-29T03:16:21.923Z,60.05
2018-12-29T03:18:49.992Z,58.70
2018-12-29T03:21:18.451Z,63.17
2018-12-29T03:23:48.745Z,58.53
2018-12-29T03:26:16.782Z,64.32
2018-12-29T03:28:45.393Z,61.40
2018-12-29T03:31:13.427Z,62.17
2018-12-29T03:33:41.419Z,61.45
2018-12-29T03:36:09.389Z,67.82
2018-12-29T03:38:37.311Z,60.50
2018-12-29T03:41:05.280Z,58.22
2018-12-29T03:43:33.271Z,59.80
2018-12-29T03:46:01.269Z,54.80
2018-12-29T03:48:29.299Z,75.40
2018-12-29T03:50:57.354Z,55.00
2018-12-29T03:53:25.426Z,52.10
2018-12-29T03:55:53.148Z,53.67
2018-12-29T03:58:21.109Z,52.35
2018-12-29T04:00:49.337Z,56.20
2018-12-29T04:03:17.791Z,54.80
2018-12-29T04:05:46.771Z,53.13
2018-12-29T04:08:14.544Z,52.92
2018-12-29T04:10:42.532Z,56.45
2018-12-29T04:13:11.064Z,60.35
2018-12-29T04:15:39.539Z,58.58
2018-12-29T04:18:07.262Z,64.93
2018-12-29T04:20:35.368Z,62.55
2018-12-29T04:23:03.135Z,57.33
2018-12-29T04:25:31.735Z,59.13
2018-12-29T04:27:59.697Z,54.85
2018-12-29T04:30:28.156Z,52.70
2018-12-29T04:32:56.251Z,57.85
2018-12-29T04:35:24.266Z,51.85
2018-12-29T04:37:52.279Z,64.95
2018-12-29T04:40:20.614Z,54.25
2018-12-29T04:42:48.623Z,51.92
2018-12-29T04:45:16.563Z,59.50
2018-12-29T04:47:44.265Z,55.97
2018-12-29T04:50:12.258Z,50.50
2018-12-29T04:52:40.243Z,52.65
2018-12-29T04:55:08.325Z,52.35
2018-12-29T04:57:36.433Z,51.40
2018-12-29T05:00:04.739Z,52.13
2018-12-29T05:02:32.747Z,51.80
2018-12-29T05:05:00.836Z,47.75
2018-12-29T05:07:28.864Z,43.20
2018-12-29T05:09:56.592Z,47.72
2018-12-29T05:12:24.596Z,47.72
2018-12-29T05:14:52.685Z,48.65
2018-12-29T05:17:20.660Z,52.17
2018-12-29T05:19:48.424Z,50.47
2018-12-29T05:22:16.920Z,53.20
2018-12-29T05:24:44.618Z,44.17
2018-12-29T05:27:12.374Z,45.65
2018-12-29T05:29:40.430Z,49.90
2018-12-29T05:32:08.181Z,48.50
2018-12-29T05:34:36.195Z,47.40
2018-12-29T05:37:04.740Z,42.55
2018-12-29T05:39:32.734Z,44.67
2018-12-29T05:42:00.799Z,47.75
2018-12-29T05:44:28.803Z,50.78
2018-12-29T05:46:56.810Z,46.35
2018-12-29T05:49:24.865Z,45.97
2018-12-29T05:51:54.297Z,50.20
2018-12-29T05:54:23.405Z,49.35
2018-12-29T05:56:51.459Z,51.22
2018-12-29T05:59:22.686Z,46.67
2018-12-29T06:01:50.388Z,41.80
2018-12-29T06:04:18.392Z,45.20
2018-12-29T06:06:46.555Z,45.47
2018-12-29T06:09:13.984Z,45.97
2018-12-29T06:11:41.952Z,50.50
2018-12-29T06:14:10.652Z,44.38
2018-12-29T06:16:38.624Z,51.35
2018-12-29T06:19:06.327Z,43.00
2018-12-29T06:21:34.100Z,45.00
2018-12-29T06:24:02.050Z,49.95
2018-12-29T06:26:30.032Z,43.15
2018-12-29T06:28:58.484Z,45.85
2018-12-29T06:31:26.204Z,43.83
2018-12-29T06:33:54.225Z,50.20
2018-12-29T06:36:22.015Z,40.83
2018-12-29T06:38:50.096Z,46.50
2018-12-29T06:41:18.099Z,50.47
2018-12-29T06:43:46.314Z,45.55
2018-12-29T06:46:14.522Z,44.85
2018-12-29T06:48:42.641Z,46.00
2018-12-29T06:51:11.342Z,40.63
2018-12-29T06:53:39.067Z,47.03
2018-12-29T06:56:07.055Z,44.95
2018-12-29T06:58:35.461Z,43.03
2018-12-29T07:01:03.203Z,48.00
2018-12-29T07:03:30.915Z,46.70
2018-12-29T07:05:58.906Z,47.10
2018-12-29T07:08:26.980Z,47.90
2018-12-29T07:10:54.941Z,52.17
2018-12-29T07:13:22.731Z,45.08
2018-12-29T07:15:50.466Z,44.58
2018-12-29T07:18:18.176Z,44.88
2018-12-29T07:20:46.310Z,44.47
2018-12-29T07:23:14.369Z,44.33
2018-12-29T07:25:42.365Z,46.78
2018-12-29T07:28:10.402Z,45.75
2018-12-29T07:30:38.966Z,40.42
2018-12-29T07:33:07.080Z,43.97
2018-12-29T07:35:36.142Z,42.53
2018-12-29T07:38:04.690Z,43.40
2018-12-29T07:40:32.442Z,39.47
2018-12-29T07:43:00.875Z,48.22
2018-12-29T07:45:28.770Z,46.25
2018-12-29T07:47:56.776Z,39.63
2018-12-29T07:50:25.123Z,47.05
2018-12-29T07:52:53.160Z,42.13
2018-12-29T07:55:21.752Z,37.30
2018-12-29T07:57:50.412Z,42.72
2018-12-29T08:00:18.427Z,44.33
2018-12-29T08:02:46.418Z,40.92
2018-12-29T08:05:14.151Z,43.72
2018-12-29T08:07:42.137Z,42.83
2018-12-29T08:10:10.671Z,39.47
2018-12-29T08:12:38.697Z,40.88
2018-12-29T08:15:06.773Z,37.72
2018-12-29T08:17:34.526Z,38.50
2018-12-29T08:20:02.569Z,38.25
2018-12-29T08:22:30.595Z,38.72
2018-12-29T08:24:58.328Z,36.38
2018-12-29T08:27:27.007Z,36.88
2018-12-29T08:29:54.776Z,41.40
2018-12-29T08:32:22.739Z,39.80
2018-12-29T08:34:51.142Z,42.75
2018-12-29T08:37:19.191Z,39.65
2018-12-29T08:39:46.943Z,41.88
2018-12-29T08:42:15.324Z,35.80
2018-12-29T08:44:43.875Z,39.03
2018-12-29T08:47:11.601Z,40.45
2018-12-29T08:49:41.348Z,36.58
2018-12-29T08:52:08.368Z,31.50
2018-12-29T08:54:36.372Z,31.30
2018-12-29T08:57:04.404Z,41.83
2018-12-29T08:59:32.241Z,32.55
2018-12-29T09:02:00.225Z,38.10
2018-12-29T09:04:28.869Z,30.80
2018-12-29T09:06:56.717Z,33.88
2018-12-29T09:09:24.805Z,37.08
2018-12-29T09:11:53.077Z,35.83
2018-12-29T09:14:21.060Z,33.65
2018-12-29T09:16:49.051Z,36.22
2018-12-29T09:19:16.844Z,34.67
2018-12-29T09:21:44.868Z,37.17
2018-12-29T09:24:13.047Z,31.55
2018-12-29T09:26:41.306Z,34.67
2018-12-29T09:29:08.984Z,34.95
2018-12-29T09:31:37.002Z,35.35
2018-12-29T09:34:05.055Z,35.08
2018-12-29T09:36:33.022Z,31.75
2018-12-29T09:39:01.071Z,35.08
2018-12-29T09:41:29.049Z,31.98
2018-12-29T09:43:57.088Z,33.97
2018-12-29T09:46:25.112Z,30.17
2018-12-29T09:48:53.475Z,30.67
2018-12-29T09:51:20.931Z,31.87
2018-12-29T09:53:48.935Z,27.62
2018-12-29T09:56:17.502Z,33.55
2018-12-29T09:58:45.245Z,32.17
2018-12-29T10:01:12.965Z,29.52
2018-12-29T10:03:40.978Z,28.70
2018-12-29T10:06:09.006Z,28.92
2018-12-29T10:08:37.013Z,28.80
2018-12-29T10:11:05.115Z,30.65
2018-12-29T10:13:33.646Z,31.02
2018-12-29T10:16:01.898Z,32.63
2018-12-29T10:18:29.915Z,24.60
2018-12-29T10:20:57.912Z,30.83
2018-12-29T10:23:25.922Z,30.17
2018-12-29T10:25:53.668Z,26.42
2018-12-29T10:28:21.769Z,30.80
2018-12-29T10:30:49.522Z,31.77
2018-12-29T10:33:18.004Z,27.75
2018-12-29T10:35:46.471Z,29.10
2018-12-29T10:38:14.474Z,32.03
2018-12-29T10:40:42.218Z,28.80
2018-12-29T10:43:10.207Z,32.58
2018-12-29T10:45:38.286Z,31.58
2018-12-29T10:48:06.362Z,32.08
2018-12-29T10:50:34.398Z,25.12
2018-12-29T10:53:02.378Z,33.80
2018-12-29T10:55:30.415Z,30.62
2018-12-29T10:57:58.455Z,31.12
2018-12-29T11:00:26.441Z,30.12
2018-12-29T11:02:54.409Z,23.38
2018-12-29T11:05:22.412Z,28.90
2018-12-29T11:07:50.533Z,29.50
2018-12-29T11:10:18.565Z,32.80
2018-12-29T11:12:46.670Z,39.75
2018-12-29T11:15:16.612Z,31.83
2018-12-29T11:17:44.044Z,32.80
2018-12-29T11:20:12.039Z,31.17
2018-12-29T11:22:40.011Z,36.17
2018-12-29T11:25:08.049Z,33.00
2018-12-29T11:27:36.186Z,33.83
2018-12-29T11:30:04.369Z,30.00
2018-12-29T11:32:32.727Z,33.50
2018-12-29T11:35:00.728Z,32.30
2018-12-29T11:37:29.254Z,28.83
2018-12-29T11:39:57.021Z,28.45
2018-12-29T11:42:25.032Z,32.55
2018-12-29T11:44:53.018Z,36.03
2018-12-29T11:47:21.487Z,30.95
2018-12-29T11:49:49.567Z,33.00
2018-12-29T11:52:17.581Z,34.03
2018-12-29T11:54:45.307Z,32.10
2018-12-29T11:57:13.278Z,29.30
2018-12-29T11:59:41.277Z,29.87
2018-12-29T12:02:09.305Z,31.12
2018-12-29T12:04:37.380Z,29.17
2018-12-29T12:07:05.104Z,30.98
2018-12-29T12:09:32.883Z,27.40
2018-12-29T12:12:00.873Z,31.00
2018-12-29T12:14:28.876Z,27.77
2018-12-29T12:16:56.981Z,32.72
2018-12-29T12:19:24.970Z,29.95
2018-12-29T12:21:52.722Z,33.10
2018-12-29T12:24:20.735Z,29.55
2018-12-29T12:26:48.907Z,29.20
2018-12-29T12:29:16.885Z,29.05
2018-12-29T12:31:45.031Z,32.72
2018-12-29T12:34:13.049Z,28.35
2018-12-29T12:36:41.061Z,31.35
2018-12-29T12:39:09.078Z,29.05
2018-12-29T12:41:37.101Z,29.45
2018-12-29T12:44:04.828Z,32.17
2018-12-29T12:46:33.388Z,29.42
2018-12-29T12:49:01.351Z,37.72
2018-12-29T12:51:29.345Z,33.90
2018-12-29T12:53:57.110Z,33.08
2018-12-29T12:56:25.105Z,30.77
2018-12-29T12:58:52.936Z,35.70
2018-12-29T13:01:20.567Z,32.13
2018-12-29T13:03:48.629Z,31.15
2018-12-29T13:06:16.367Z,31.33
2018-12-29T13:08:44.909Z,34.20
2018-12-29T13:11:12.952Z,32.70
2018-12-29T13:13:40.711Z,36.83
2018-12-29T13:16:08.696Z,36.08
2018-12-29T13:18:36.783Z,36.45
2018-12-29T13:21:04.771Z,34.55
2018-12-29T13:23:32.529Z,33.45
2018-12-29T13:26:00.244Z,32.78
2018-12-29T13:28:28.269Z,34.42
2018-12-29T13:30:56.348Z,37.08
2018-12-29T13:33:24.508Z,35.47
2018-12-29T13:35:52.470Z,40.42
2018-12-29T13:38:21.063Z,40.70
2018-12-29T13:40:49.074Z,36.15
2018-12-29T13:43:17.109Z,39.63
2018-12-29T13:45:45.113Z,42.50
2018-12-29T13:48:20.400Z,39.72
2018-12-29T13:50:40.834Z,44.03
2018-12-29T13:53:09.272Z,41.28
2018-12-29T13:55:37.225Z,37.20
2018-12-29T13:58:04.956Z,39.70
2018-12-29T14:00:34.031Z,38.88
2018-12-29T14:03:01.825Z,48.28
2018-12-29T14:05:29.909Z,42.60
2018-12-29T14:07:57.939Z,40.78
2018-12-29T14:10:25.950Z,40.88
2018-12-29T14:12:54.069Z,38.10
2018-12-29T14:15:22.194Z,45.75
2018-12-29T14:17:49.959Z,43.60
2018-12-29T14:20:18.159Z,49.85
2018-12-29T14:22:46.495Z,54.03
2018-12-29T14:25:14.444Z,51.33
2018-12-29T14:27:42.412Z,54.88
2018-12-29T14:30:10.454Z,48.80
2018-12-29T14:32:38.704Z,48.78
2018-12-29T14:35:06.977Z,52.15
2018-12-29T14:37:35.881Z,44.60
2018-12-29T14:40:04.299Z,50.95
2018-12-29T14:42:32.304Z,46.83
2018-12-29T14:45:00.167Z,53.60
2018-12-29T14:47:27.906Z,60.78
2018-12-29T14:49:55.991Z,64.00
2018-12-29T14:52:23.885Z,56.10
2018-12-29T14:54:51.651Z,52.15
2018-12-29T14:57:19.362Z,46.78
2018-12-29T14:59:47.633Z,50.15
2018-12-29T15:02:15.783Z,48.25
2018-12-29T15:04:43.931Z,45.55
2018-12-29T15:07:12.104Z,49.80
2018-12-29T15:09:40.086Z,46.22
2018-12-29T15:12:08.735Z,46.40
2018-12-29T15:14:36.807Z,48.70
2018-12-29T15:17:05.009Z,47.08
2018-12-29T15:19:33.082Z,45.80
2018-12-29T15:22:01.874Z,45.05
2018-12-29T15:24:29.837Z,30.23
2018-12-29T15:26:57.383Z,45.70
2018-12-29T15:29:25.961Z,41.37
2018-12-29T15:31:54.047Z,40.10
2018-12-29T15:34:21.903Z,45.65
2018-12-29T15:36:50.120Z,37.95
2018-12-29T15:39:18.278Z,37.05
2018-12-29T15:41:45.993Z,47.08
2018-12-29T15:44:13.773Z,43.72
2018-12-29T15:46:41.971Z,44.63
2018-12-29T15:49:09.713Z,44.67
2018-12-29T15:51:37.851Z,48.95
2018-12-29T15:54:05.595Z,43.95
2018-12-29T15:56:33.389Z,43.83
2018-12-29T15:59:01.293Z,44.22
2018-12-29T16:01:29.376Z,42.50
2018-12-29T16:03:57.123Z,38.10
2018-12-29T16:06:25.201Z,42.33
2018-12-29T16:08:53.468Z,45.25
2018-12-29T16:11:26.253Z,39.35
2018-12-29T16:13:49.571Z,42.53
2018-12-29T16:16:17.603Z,49.50
2018-12-29T16:18:45.762Z,43.97
2018-12-29T16:21:13.527Z,45.65
2018-12-29T16:23:41.576Z,42.85
2018-12-29T16:26:12.906Z,45.20
2018-12-29T16:28:37.609Z,36.35
2018-12-29T16:31:05.490Z,39.53
2018-12-29T16:33:33.148Z,47.25
2018-12-29T16:36:01.298Z,40.10
2018-12-29T16:38:29.327Z,35.88
2018-12-29T16:40:57.908Z,48.22
2018-12-29T16:43:25.386Z,37.35
2018-12-29T16:45:53.306Z,35.80
2018-12-29T16:48:21.480Z,35.58
2018-12-29T16:50:49.131Z,38.78
2018-12-29T16:53:16.903Z,32.95
2018-12-29T16:55:45.459Z,33.35
2018-12-29T16:58:13.600Z,27.27
2018-12-29T17:00:41.614Z,33.88
2018-12-29T17:03:09.597Z,35.72
2018-12-29T17:05:37.539Z,23.92
2018-12-29T17:08:06.124Z,24.95
2018-12-29T17:10:33.904Z,30.17
2018-12-29T17:13:02.069Z,22.58
2018-12-29T17:15:30.086Z,22.95
2018-12-29T17:17:57.856Z,19.37
2018-12-29T17:20:26.413Z,23.77
2018-12-29T17:22:54.591Z,22.87
2018-12-29T17:25:23.431Z,25.60
2018-12-29T17:27:51.864Z,23.25
2018-12-29T17:30:20.416Z,19.37
2018-12-29T17:32:48.464Z,22.80
2018-12-29T17:35:16.912Z,21.15
2018-12-29T17:37:44.966Z,18.95
2018-12-29T17:40:13.068Z,21.50
2018-12-29T17:42:41.119Z,20.27
2018-12-29T17:45:09.186Z,21.20
2018-12-29T17:47:36.900Z,20.23
2018-12-29T17:50:05.095Z,22.45
2018-12-29T17:52:33.180Z,15.18
2018-12-29T17:55:00.894Z,20.83
2018-12-29T17:57:28.941Z,19.33
2018-12-29T17:59:56.695Z,19.42
2018-12-29T18:02:24.690Z,16.85
2018-12-29T18:04:52.512Z,16.98
2018-12-29T18:07:20.543Z,15.35
2018-12-29T18:09:57.018Z,8.32
2018-12-29T18:12:17.379Z,12.13
2018-12-29T18:14:45.468Z,17.73
2018-12-29T18:17:13.267Z,8.40
2018-12-29T18:19:41.310Z,14.80
2018-12-29T18:22:09.333Z,11.50
2018-12-29T18:24:37.983Z,8.23
2018-12-29T18:27:06.180Z,11.40
2018-12-29T18:29:34.178Z,12.77
2018-12-29T18:32:02.241Z,10.45
2018-12-29T18:34:30.403Z,9.60
2018-12-29T18:36:58.422Z,6.53
2018-12-29T18:39:26.449Z,10.32
2018-12-29T18:41:54.168Z,13.13
2018-12-29T18:44:22.782Z,9.38
2018-12-29T18:46:50.479Z,11.93
2018-12-29T18:49:18.644Z,7.55
2018-12-29T18:51:46.602Z,12.95
2018-12-29T18:54:14.661Z,6.60
2018-12-29T18:56:45.623Z,11.43
2018-12-29T18:59:10.840Z,16.80
2018-12-29T19:01:39.497Z,10.88
2018-12-29T19:04:07.579Z,16.77
2018-12-29T19:06:35.349Z,8.52
2018-12-29T19:09:03.511Z,7.75
2018-12-29T19:11:32.667Z,11.12
2018-12-29T19:14:00.620Z,13.60
2018-12-29T19:16:28.638Z,13.70
2018-12-29T19:18:56.711Z,13.52
2018-12-29T19:21:24.599Z,13.95
2018-12-29T19:23:52.644Z,13.75
2018-12-29T19:26:20.968Z,11.27
2018-12-29T19:28:49.292Z,13.48
2018-12-29T19:31:16.857Z,11.05
2018-12-29T19:33:45.523Z,18.67
2018-12-29T19:36:13.571Z,15.60
2018-12-29T19:38:41.598Z,14.65
2018-12-29T19:41:09.671Z,13.80
2018-12-29T19:43:37.932Z,13.00
2018-12-29T19:46:05.956Z,13.48
2018-12-29T19:48:34.158Z,12.95
2018-12-29T19:51:02.143Z,12.45
2018-12-29T19:53:30.214Z,14.30
2018-12-29T19:55:58.899Z,16.30
2018-12-29T19:58:26.923Z,13.02
2018-12-29T20:00:55.007Z,15.10
2018-12-29T20:03:23.114Z,13.23
2018-12-29T20:05:50.801Z,13.32
2018-12-29T20:08:18.844Z,17.08
2018-12-29T20:10:47.007Z,21.75
2018-12-29T20:13:14.772Z,17.05
2018-12-29T20:15:42.818Z,12.37
2018-12-29T20:18:11.512Z,10.93
2018-12-29T20:20:39.512Z,17.70
2018-12-29T20:23:07.539Z,13.35
2018-12-29T20:25:35.357Z,13.55
2018-12-29T20:28:03.365Z,13.98
2018-12-29T20:30:31.688Z,12.63
2018-12-29T20:33:00.613Z,14.77
2018-12-29T20:35:28.628Z,17.05
2018-12-29T20:37:56.457Z,17.77
2018-12-29T20:40:24.397Z,18.08
2018-12-29T20:42:52.463Z,14.80
2018-12-29T20:45:21.068Z,23.87
2018-12-29T20:47:49.536Z,14.68
2018-12-29T20:50:17.552Z,15.93
2018-12-29T20:52:45.754Z,20.35
2018-12-29T20:55:13.938Z,15.63
2018-12-29T20:57:41.979Z,17.02
2018-12-29T21:00:10.202Z,17.48
2018-12-29T21:02:38.310Z,19.12
2018-12-29T21:05:06.125Z,17.30
2018-12-29T21:07:34.788Z,19.77
2018-12-29T21:10:02.886Z,15.63
2018-12-29T21:12:30.941Z,16.30
2018-12-29T21:14:58.666Z,18.37
2018-12-29T21:17:26.706Z,14.40
2018-12-29T21:19:55.302Z,17.35
2018-12-29T21:22:23.252Z,15.60
2018-12-29T21:24:51.297Z,12.57
2018-12-29T21:27:20.176Z,14.87
2018-12-29T21:29:48.230Z,17.70
2018-12-29T21:32:17.155Z,11.55
2018-12-29T21:34:45.183Z,13.23
2018-12-29T21:37:13.199Z,14.65
2018-12-29T21:39:41.266Z,18.67
2018-12-29T21:42:09.409Z,16.65
2018-12-29T21:44:37.548Z,15.75
2018-12-29T21:47:05.636Z,12.90
2018-12-29T21:49:34.726Z,13.23
2018-12-29T21:52:02.231Z,18.83
2018-12-29T21:54:30.281Z,14.75
2018-12-29T21:56:58.394Z,14.55
2018-12-29T21:59:26.262Z,12.27
2018-12-29T22:01:54.767Z,20.83
2018-12-29T22:04:22.715Z,16.42
2018-12-29T22:06:50.809Z,14.05
2018-12-29T22:09:18.983Z,10.93
2018-12-29T22:11:47.113Z,13.32
2018-12-29T22:14:15.146Z,16.55
2018-12-29T22:16:43.156Z,19.55
2018-12-29T22:19:11.338Z,15.93
2018-12-29T22:21:40.054Z,22.58
2018-12-29T22:24:07.825Z,9.60
2018-12-29T22:26:36.450Z,8.93
2018-12-29T22:29:04.440Z,17.30
2018-12-29T22:31:33.039Z,14.38
2018-12-29T22:34:01.221Z,11.30
2018-12-29T22:36:29.404Z,26.65
2018-12-29T22:38:57.346Z,15.00
2018-12-29T22:41:25.362Z,16.17
2018-12-29T22:43:53.155Z,17.83
2018-12-29T22:46:21.148Z,14.50
2018-12-29T22:48:48.899Z,10.65
2018-12-29T22:51:16.907Z,16.83
2018-12-29T22:53:45.084Z,10.10
2018-12-29T22:56:13.737Z,13.32
2018-12-29T22:58:41.785Z,13.18
2018-12-29T23:01:10.803Z,16.17
2018-12-29T23:03:39.361Z,19.58
2018-12-29T23:06:07.559Z,15.60
2018-12-29T23:08:35.694Z,16.40
2018-12-29T23:11:03.738Z,13.38
2018-12-29T23:13:31.794Z,17.73
2018-12-29T23:16:00.051Z,15.02
2018-12-29T23:18:28.022Z,12.02
2018-12-29T23:20:56.223Z,12.15
2018-12-29T23:23:24.015Z,14.45
2018-12-29T23:25:51.962Z,10.52
2018-12-29T23:28:19.926Z,15.73
2018-12-29T23:30:48.051Z,14.00
2018-12-29T23:33:16.092Z,14.57
2018-12-29T23:35:44.511Z,14.90
2018-12-29T23:38:12.585Z,16.30
2018-12-29T23:40:40.798Z,16.87
2018-12-29T23:43:09.068Z,12.88
2018-12-29T23:45:37.037Z,11.77
2018-12-29T23:48:04.788Z,14.48
2018-12-29T23:50:32.883Z,15.10
2018-12-29T23:53:00.934Z,13.77
2018-12-29T23:55:28.959Z,15.32
2018-12-29T23:57:57.073Z,18.30
